Time;durP1;ratioP1;P1;durP2;ratioP2;P2;SDS_P1;SDS_P2;PMS_P1;PMS_P2;Temp;Humidity;BMP_temperature;BMP_pressure;BME280_temperature;BME280_humidity;BME280_pressure;Samples;Min_cycle;Max_cycle;Signal;HPM_P1;HPM_P2
2022/08/29 00:02:03;;;;;;;6.93;2.42;;;16.10;90.20;;;;;;5058282;28;20032;-65
2022/08/29 00:04:29;;;;;;;6.32;2.67;;;16.10;90.60;;;;;;5057234;28;22566;-64
2022/08/29 00:06:54;;;;;;;7.53;2.45;;;16.10;90.30;;;;;;5051248;28;20045;-64
2022/08/29 00:09:20;;;;;;;5.95;2.40;;;16.10;90.30;;;;;;5049782;28;20655;-64
2022/08/29 00:11:45;;;;;;;5.65;2.50;;;16.10;90.40;;;;;;5055277;28;20453;-64
2022/08/29 00:14:11;;;;;;;6.68;2.97;;;16.10;90.40;;;;;;5052640;28;20041;-64
2022/08/29 00:16:36;;;;;;;7.68;3.08;;;16.10;90.40;;;;;;5069209;28;20114;-64
2022/08/29 00:19:02;;;;;;;5.70;2.60;;;16.10;90.40;;;;;;5057486;28;20028;-64
2022/08/29 00:21:28;;;;;;;5.65;2.72;;;16.10;90.50;;;;;;5065522;28;20037;-64
2022/08/29 00:23:53;;;;;;;7.63;2.53;;;16.10;90.50;;;;;;5056420;28;20047;-64
2022/08/29 00:26:19;;;;;;;7.28;2.88;;;16.10;90.60;;;;;;5053018;28;20055;-64
2022/08/29 00:28:44;;;;;;;5.72;2.58;;;16.10;90.70;;;;;;5055967;28;20123;-64
2022/08/29 00:31:10;;;;;;;10.05;3.20;;;16.10;90.70;;;;;;5036880;28;20051;-64
2022/08/29 00:33:36;;;;;;;5.35;2.83;;;16.00;90.60;;;;;;5052433;28;20455;-64
2022/08/29 00:36:02;;;;;;;4.50;2.65;;;16.00;90.60;;;;;;5055148;28;20044;-64
2022/08/29 00:38:29;;;;;;;6.25;2.85;;;16.10;90.70;;;;;;5059316;28;20032;-64
2022/08/29 00:40:56;;;;;;;9.75;2.90;;;16.00;90.70;;;;;;5071577;28;20040;-64
2022/08/29 00:43:26;;;;;;;6.70;2.42;;;16.10;90.80;;;;;;5046924;28;20039;-64
2022/08/29 00:46:33;;;;;;;5.72;2.65;;;16.10;90.90;;;;;;5064513;28;20052;-64
2022/08/29 00:49:07;;;;;;;5.18;2.75;;;16.00;91.00;;;;;;5004020;28;20124;-64
2022/08/29 00:51:34;;;;;;;7.05;2.95;;;16.00;91.10;;;;;;5049723;28;20056;-64
2022/08/29 00:54:06;;;;;;;6.75;3.10;;;16.00;91.10;;;;;;5040525;28;20048;-64
2022/08/29 00:56:33;;;;;;;7.13;2.70;;;16.00;91.50;;;;;;5061278;28;20113;-64
2022/08/29 00:59:17;;;;;;;4.97;2.67;;;16.00;91.10;;;;;;5046679;28;20124;-64
2022/08/29 01:01:44;;;;;;;9.75;3.15;;;16.10;91.20;;;;;;5065274;28;20075;-64
2022/08/29 01:04:09;;;;;;;7.07;2.65;;;16.00;91.20;;;;;;5052778;28;20052;-64
2022/08/29 01:06:36;;;;;;;10.40;2.85;;;16.00;91.30;;;;;;5050294;28;20044;-64
2022/08/29 01:09:03;;;;;;;7.22;3.22;;;16.00;91.40;;;;;;5054099;28;20075;-64
2022/08/29 01:14:19;;;;;;;7.28;2.85;;;16.00;91.40;;;;;;5059525;28;20080;-64
2022/08/29 01:16:46;;;;;;;6.15;2.70;;;16.00;91.40;;;;;;5073465;28;20037;-64
2022/08/29 01:19:35;;;;;;;7.85;2.88;;;16.00;91.40;;;;;;5066494;28;20029;-64
2022/08/29 01:22:23;;;;;;;9.55;2.92;;;16.00;91.70;;;;;;5053946;28;20489;-64
2022/08/29 01:24:51;;;;;;;6.22;3.20;;;16.00;91.80;;;;;;5060892;28;20421;-64
2022/08/29 01:27:23;;;;;;;10.73;3.13;;;16.00;91.80;;;;;;5057951;28;20052;-64
2022/08/29 01:29:49;;;;;;;7.90;3.47;;;15.90;91.90;;;;;;5066707;28;20159;-64
2022/08/29 01:32:16;;;;;;;7.07;3.80;;;16.00;91.90;;;;;;5068456;28;20115;-64
2022/08/29 01:34:42;;;;;;;6.90;3.00;;;16.00;91.90;;;;;;5063694;28;20045;-64
2022/08/29 01:37:10;;;;;;;5.97;2.80;;;16.00;91.90;;;;;;5041759;28;20037;-64
2022/08/29 01:39:38;;;;;;;8.07;3.00;;;16.00;92.00;;;;;;5057293;28;20033;-64
2022/08/29 01:42:14;;;;;;;7.68;3.00;;;16.00;92.10;;;;;;5057031;28;20432;-64
2022/08/29 01:44:40;;;;;;;8.32;3.28;;;16.00;92.30;;;;;;5062634;28;20044;-64
2022/08/29 01:47:07;;;;;;;9.10;3.63;;;15.90;92.20;;;;;;5062653;28;20143;-64
2022/08/29 01:49:36;;;;;;;8.00;3.22;;;15.90;92.20;;;;;;5057131;28;20063;-64
2022/08/29 01:52:04;;;;;;;6.93;3.70;;;15.90;92.30;;;;;;5056851;28;20041;-64
2022/08/29 01:54:30;;;;;;;8.88;3.33;;;16.00;92.40;;;;;;5061274;28;20048;-64
2022/08/29 01:56:56;;;;;;;9.98;2.83;;;15.90;92.50;;;;;;5052078;28;20029;-64
2022/08/29 01:59:25;;;;;;;8.85;3.28;;;15.90;92.50;;;;;;5058642;28;20591;-64
2022/08/29 02:01:55;;;;;;;8.30;3.30;;;15.90;92.60;;;;;;5064533;28;20037;-64
2022/08/29 02:04:21;;;;;;;8.23;3.13;;;15.90;92.70;;;;;;5062336;28;20419;-64
2022/08/29 02:06:47;;;;;;;6.70;2.80;;;15.90;92.60;;;;;;5060196;28;20066;-64
2022/08/29 02:09:13;;;;;;;8.63;3.35;;;15.90;92.70;;;;;;5065564;28;20040;-64
2022/08/29 02:11:39;;;;;;;5.57;2.90;;;15.90;92.80;;;;;;5062355;28;20041;-64
2022/08/29 02:14:05;;;;;;;8.45;3.00;;;16.00;92.90;;;;;;5054058;28;20053;-64
2022/08/29 02:16:31;;;;;;;6.35;2.83;;;16.00;93.00;;;;;;5057501;28;20033;-64
2022/08/29 02:18:58;;;;;;;6.72;2.83;;;15.90;93.00;;;;;;5057050;28;20051;-64
2022/08/29 02:21:26;;;;;;;7.43;3.35;;;15.90;93.10;;;;;;5068324;28;20029;-64
2022/08/29 02:23:53;;;;;;;7.30;3.25;;;15.90;92.90;;;;;;5054683;28;20036;-64
2022/08/29 02:26:20;;;;;;;7.43;3.47;;;15.90;92.90;;;;;;5047698;28;20036;-64
2022/08/29 02:28:46;;;;;;;10.20;4.05;;;15.90;93.00;;;;;;5049180;28;20037;-64
2022/08/29 02:31:12;;;;;;;9.32;3.53;;;15.90;93.00;;;;;;5067488;28;20160;-64
2022/08/29 02:33:38;;;;;;;7.38;3.05;;;15.90;93.10;;;;;;5060991;28;20150;-64
2022/08/29 02:36:05;;;;;;;7.63;3.58;;;15.80;93.10;;;;;;5051517;28;20048;-64
2022/08/29 02:38:31;;;;;;;8.30;3.40;;;15.80;93.20;;;;;;5053150;28;20092;-64
2022/08/29 02:40:57;;;;;;;7.97;4.00;;;15.90;93.30;;;;;;5042107;28;20037;-64
2022/08/29 02:43:24;;;;;;;8.75;2.90;;;15.80;93.40;;;;;;5051998;28;20055;-64
2022/08/29 02:45:50;;;;;;;9.95;3.83;;;15.80;93.40;;;;;;5062724;28;20063;-64
2022/08/29 02:48:16;;;;;;;6.38;3.45;;;15.80;93.50;;;;;;5061043;28;20122;-64
2022/08/29 02:50:48;;;;;;;7.20;3.10;;;15.80;93.70;;;;;;5068034;28;20428;-64
2022/08/29 02:53:15;;;;;;;6.93;2.92;;;15.80;93.70;;;;;;5062755;28;20488;-64
2022/08/29 02:55:41;;;;;;;8.32;2.80;;;15.90;94.00;;;;;;5061403;28;20033;-65
2022/08/29 02:58:07;;;;;;;10.52;3.90;;;15.90;94.00;;;;;;5048177;28;20036;-63
2022/08/29 03:00:34;;;;;;;6.30;3.05;;;15.90;94.10;;;;;;5056556;28;20044;-64
2022/08/29 03:03:00;;;;;;;6.03;3.00;;;15.90;94.20;;;;;;5041107;28;20504;-64
2022/08/29 03:05:28;;;;;;;5.30;2.65;;;15.80;94.30;;;;;;5060026;28;20036;-64
2022/08/29 03:07:55;;;;;;;6.82;3.33;;;15.80;94.40;;;;;;5050331;28;20137;-64
2022/08/29 03:10:21;;;;;;;7.15;3.33;;;15.80;94.50;;;;;;5058125;28;20048;-64
2022/08/29 03:12:48;;;;;;;5.10;2.95;;;15.80;94.60;;;;;;5060565;28;20124;-64
2022/08/29 03:15:14;;;;;;;7.70;2.80;;;15.80;94.70;;;;;;5063444;28;20033;-64
2022/08/29 03:17:39;;;;;;;7.15;2.58;;;15.80;94.90;;;;;;5066171;28;20037;-64
2022/08/29 03:20:07;;;;;;;8.88;3.55;;;15.80;95.10;;;;;;5066284;28;20516;-64
2022/08/29 03:22:33;;;;;;;6.22;3.10;;;15.80;95.30;;;;;;5033983;28;20049;-63
2022/08/29 03:25:03;;;;;;;9.20;3.42;;;15.80;95.40;;;;;;5063823;28;20105;-64
2022/08/29 03:27:30;;;;;;;7.22;2.90;;;15.80;95.60;;;;;;5068937;28;20508;-64
2022/08/29 03:29:55;;;;;;;6.85;2.92;;;15.80;95.70;;;;;;5032392;28;21334;-64
2022/08/29 03:32:22;;;;;;;9.68;3.50;;;15.80;95.90;;;;;;5050613;28;20116;-64
2022/08/29 03:34:48;;;;;;;10.05;3.17;;;15.80;96.00;;;;;;5035529;28;20072;-64
2022/08/29 03:37:13;;;;;;;8.18;3.00;;;15.80;96.20;;;;;;5067769;28;20076;-63
2022/08/29 03:39:39;;;;;;;8.98;2.63;;;15.80;96.30;;;;;;5067067;28;20040;-64
2022/08/29 03:42:06;;;;;;;5.07;2.63;;;15.70;96.50;;;;;;5068797;28;20460;-64
2022/08/29 03:44:36;;;;;;;5.95;2.80;;;15.80;96.60;;;;;;5060153;28;20051;-64
2022/08/29 03:47:03;;;;;;;8.10;3.00;;;15.70;96.80;;;;;;5052438;28;20057;-64
2022/08/29 03:49:28;;;;;;;6.53;2.75;;;15.80;96.90;;;;;;5038741;28;20045;-64
2022/08/29 03:51:54;;;;;;;8.43;3.10;;;15.80;97.00;;;;;;5048740;28;20480;-64
2022/08/29 03:54:20;;;;;;;8.18;2.85;;;15.70;97.20;;;;;;5039879;28;20122;-64
2022/08/29 03:56:46;;;;;;;11.35;2.90;;;15.70;97.40;;;;;;5041719;28;20048;-64
2022/08/29 03:59:12;;;;;;;9.82;3.03;;;15.60;97.60;;;;;;5039648;28;20059;-64
2022/08/29 04:01:38;;;;;;;7.82;3.28;;;15.60;97.70;;;;;;5038704;28;20041;-64
2022/08/29 04:04:04;;;;;;;5.18;2.38;;;15.60;97.80;;;;;;5031560;28;20071;-64
2022/08/29 04:06:32;;;;;;;7.18;2.97;;;15.60;98.00;;;;;;5037070;28;20045;-64
2022/08/29 04:08:59;;;;;;;11.13;3.17;;;15.60;98.10;;;;;;5025264;28;20036;-63
2022/08/29 04:11:26;;;;;;;5.80;3.00;;;15.60;98.30;;;;;;5038686;28;20425;-64
2022/08/29 04:13:53;;;;;;;10.13;2.90;;;15.60;98.50;;;;;;5044444;28;20034;-64
2022/08/29 04:16:25;;;;;;;7.70;2.90;;;15.60;98.60;;;;;;5048311;28;20037;-64
2022/08/29 04:18:51;;;;;;;7.63;2.80;;;15.60;99.00;;;;;;5040783;28;20053;-64
2022/08/29 04:21:17;;;;;;;5.50;2.72;;;15.60;99.00;;;;;;5043939;28;20048;-64
2022/08/29 04:23:44;;;;;;;9.40;2.78;;;15.60;99.10;;;;;;5042771;28;20087;-64
2022/08/29 04:26:16;;;;;;;10.73;2.72;;;15.60;99.20;;;;;;5011821;28;20128;-64
2022/08/29 04:28:42;;;;;;;6.72;2.70;;;15.60;99.40;;;;;;5035558;28;20060;-64
2022/08/29 04:31:12;;;;;;;6.13;2.50;;;15.60;99.50;;;;;;5045493;28;20037;-64
2022/08/29 04:33:38;;;;;;;6.10;2.33;;;15.60;99.80;;;;;;5039417;28;20041;-63
2022/08/29 04:36:05;;;;;;;6.88;2.85;;;15.60;99.90;;;;;;5043491;28;20037;-64
2022/08/29 04:38:31;;;;;;;9.35;2.80;;;15.60;99.90;;;;;;5022213;28;20080;-64
2022/08/29 04:40:57;;;;;;;5.78;2.95;;;15.60;99.90;;;;;;5038785;28;20069;-64
2022/08/29 04:43:22;;;;;;;9.70;2.45;;;15.60;99.90;;;;;;5040008;28;20472;-64
2022/08/29 04:45:55;;;;;;;3.97;2.60;;;15.60;99.90;;;;;;5037029;28;20044;-64
2022/08/29 04:48:21;;;;;;;7.60;2.65;;;15.60;99.90;;;;;;5073378;28;20036;-63
2022/08/29 04:50:56;;;;;;;5.65;2.88;;;15.50;99.90;;;;;;5070666;28;20407;-64
2022/08/29 04:53:23;;;;;;;7.57;2.63;;;15.60;99.90;;;;;;5074736;28;20496;-63
2022/08/29 04:56:05;;;;;;;5.28;2.80;;;15.60;99.90;;;;;;5064817;28;20097;-64
2022/08/29 04:58:32;;;;;;;6.57;2.63;;;15.50;99.90;;;;;;5080415;28;20399;-64
2022/08/29 05:00:58;;;;;;;8.75;2.80;;;15.50;99.90;;;;;;5075414;28;20066;-64
2022/08/29 05:03:24;;;;;;;6.97;2.58;;;15.50;99.90;;;;;;5063754;28;20044;-63
2022/08/29 05:06:00;;;;;;;12.20;3.15;;;15.50;99.90;;;;;;5074823;28;20047;-64
2022/08/29 05:08:27;;;;;;;6.97;2.30;;;15.50;99.90;;;;;;5071446;28;20502;-64
2022/08/29 05:10:53;;;;;;;6.60;2.47;;;15.50;99.90;;;;;;5074247;28;20503;-64
2022/08/29 05:13:19;;;;;;;7.50;2.85;;;15.50;99.90;;;;;;5078283;28;20048;-64
2022/08/29 05:15:45;;;;;;;4.88;2.22;;;15.50;99.90;;;;;;5093533;28;20086;-64
2022/08/29 05:18:15;;;;;;;6.35;2.20;;;15.60;99.90;;;;;;5084804;28;20587;-64
2022/08/29 05:20:42;;;;;;;7.82;2.55;;;15.60;99.90;;;;;;5090099;28;20420;-64
2022/08/29 05:23:09;;;;;;;7.75;2.90;;;15.60;99.90;;;;;;5073120;28;20532;-63
2022/08/29 05:25:35;;;;;;;8.55;2.80;;;15.70;99.90;;;;;;5089876;28;20027;-64
2022/08/29 05:28:01;;;;;;;5.38;2.75;;;15.70;99.90;;;;;;5090281;28;20040;-64
2022/08/29 05:30:27;;;;;;;6.93;2.50;;;15.80;99.90;;;;;;5088984;28;20464;-64
2022/08/29 05:32:53;;;;;;;8.07;2.38;;;15.80;99.90;;;;;;5081303;28;20072;-64
2022/08/29 05:35:20;;;;;;;4.90;1.90;;;15.80;99.90;;;;;;5085668;28;20036;-64
2022/08/29 05:37:45;;;;;;;9.98;2.10;;;15.80;99.90;;;;;;5078636;28;20044;-64
2022/08/29 05:40:11;;;;;;;6.38;2.55;;;15.80;99.90;;;;;;5087517;28;20586;-64
2022/08/29 05:42:36;;;;;;;4.55;2.15;;;15.80;99.90;;;;;;5079169;28;20042;-64
2022/08/29 05:45:06;;;;;;;6.60;2.33;;;15.90;99.90;;;;;;5085654;28;20039;-64
2022/08/29 05:47:32;;;;;;;5.32;2.10;;;15.90;99.90;;;;;;5080640;28;20059;-64
2022/08/29 05:49:58;;;;;;;8.68;2.60;;;16.00;99.90;;;;;;5081074;28;20127;-64
2022/08/29 05:52:24;;;;;;;5.43;2.15;;;16.00;99.90;;;;;;5079219;28;20056;-64
2022/08/29 05:54:50;;;;;;;6.78;2.33;;;16.10;99.90;;;;;;5088893;28;20032;-64
2022/08/29 05:57:19;;;;;;;6.82;2.30;;;16.20;99.90;;;;;;5089179;28;20093;-64
2022/08/29 05:59:45;;;;;;;6.53;2.25;;;16.30;99.90;;;;;;5090780;28;20036;-64
2022/08/29 06:02:11;;;;;;;6.10;2.60;;;16.40;99.90;;;;;;5086843;28;20044;-64
2022/08/29 06:04:38;;;;;;;6.15;2.25;;;16.50;99.90;;;;;;5083932;28;20054;-64
2022/08/29 06:07:05;;;;;;;4.55;2.10;;;16.60;99.90;;;;;;5070379;28;20088;-64
2022/08/29 06:09:31;;;;;;;5.07;2.25;;;16.60;99.90;;;;;;5085417;28;20051;-64
2022/08/29 06:11:57;;;;;;;6.28;2.65;;;16.70;99.90;;;;;;5081047;28;20048;-64
2022/08/29 06:14:23;;;;;;;8.30;2.03;;;16.80;99.90;;;;;;5065168;28;20056;-64
2022/08/29 06:16:49;;;;;;;7.20;2.55;;;16.80;99.90;;;;;;5070681;28;20036;-64
2022/08/29 06:19:15;;;;;;;7.93;2.50;;;16.90;99.90;;;;;;5074245;28;20047;-64
2022/08/29 06:21:41;;;;;;;7.07;2.10;;;17.00;99.90;;;;;;5074145;28;20613;-64
2022/08/29 06:24:07;;;;;;;6.22;2.05;;;17.10;99.90;;;;;;5085878;28;20119;-64
2022/08/29 06:26:33;;;;;;;9.63;2.95;;;17.20;99.90;;;;;;5077749;28;20686;-64
2022/08/29 06:28:59;;;;;;;5.60;2.28;;;17.30;99.90;;;;;;5080268;28;20055;-64
2022/08/29 06:31:27;;;;;;;5.72;2.00;;;17.50;99.90;;;;;;5065658;28;20032;-64
2022/08/29 06:33:55;;;;;;;7.22;2.85;;;17.70;99.90;;;;;;5079207;28;20082;-64
2022/08/29 06:36:24;;;;;;;7.70;2.40;;;17.90;99.90;;;;;;5082191;28;20095;-65
2022/08/29 06:38:50;;;;;;;8.90;2.35;;;18.10;99.90;;;;;;5083912;28;20353;-65
2022/08/29 06:41:16;;;;;;;5.32;2.42;;;18.30;99.90;;;;;;5081592;28;20555;-65
2022/08/29 06:43:42;;;;;;;7.35;2.25;;;18.60;99.90;;;;;;5068945;28;20042;-65
2022/08/29 06:46:17;;;;;;;7.88;2.30;;;18.70;99.90;;;;;;5079922;28;20127;-65
2022/08/29 06:48:43;;;;;;;6.85;2.13;;;18.90;99.90;;;;;;5071394;28;20044;-65
2022/08/29 06:51:08;;;;;;;6.18;2.00;;;19.10;99.90;;;;;;5079351;28;20098;-65
2022/08/29 06:53:34;;;;;;;3.33;2.03;;;19.20;99.90;;;;;;5068073;28;20135;-65
2022/08/29 06:56:05;;;;;;;6.18;2.00;;;19.30;99.90;;;;;;5077654;28;20075;-65
2022/08/29 06:58:30;;;;;;;7.43;2.42;;;19.40;99.60;;;;;;5081724;28;20442;-64
2022/08/29 07:00:56;;;;;;;4.78;2.35;;;19.40;99.60;;;;;;5080809;28;20067;-65
2022/08/29 07:03:21;;;;;;;7.82;2.33;;;19.40;99.40;;;;;;5078065;28;20068;-65
2022/08/29 07:05:53;;;;;;;8.88;2.13;;;19.50;99.10;;;;;;5087855;28;20479;-65
2022/08/29 07:08:19;;;;;;;5.82;2.20;;;19.50;98.70;;;;;;5078757;28;20036;-65
2022/08/29 07:10:45;;;;;;;7.07;2.40;;;19.50;98.80;;;;;;5071676;28;20637;-64
2022/08/29 07:13:10;;;;;;;5.78;2.10;;;19.50;98.80;;;;;;5076745;28;20119;-64
2022/08/29 07:15:36;;;;;;;7.85;2.47;;;19.70;98.70;;;;;;5083505;28;20039;-65
2022/08/29 07:18:02;;;;;;;5.60;2.10;;;19.70;98.50;;;;;;5085815;28;20040;-65
2022/08/29 07:20:28;;;;;;;7.97;2.13;;;19.80;98.40;;;;;;5082717;28;20477;-65
2022/08/29 07:22:54;;;;;;;6.65;2.72;;;19.90;98.30;;;;;;5082498;28;20032;-64
2022/08/29 07:25:20;;;;;;;8.55;2.33;;;20.00;98.20;;;;;;5069809;28;20040;-65
2022/08/29 07:27:47;;;;;;;7.13;2.35;;;20.10;98.10;;;;;;5067385;28;20044;-65
2022/08/29 07:30:15;;;;;;;7.45;2.75;;;20.20;98.00;;;;;;5069222;28;20139;-65
2022/08/29 07:32:43;;;;;;;6.75;2.60;;;20.20;97.90;;;;;;5067195;28;20040;-65
2022/08/29 07:35:11;;;;;;;8.30;2.70;;;20.20;97.60;;;;;;5072823;28;20507;-65
2022/08/29 07:37:37;;;;;;;9.43;2.63;;;20.10;97.60;;;;;;5085111;28;20040;-65
2022/08/29 07:40:03;;;;;;;8.43;2.70;;;20.20;97.40;;;;;;5090491;28;20165;-65
2022/08/29 07:42:29;;;;;;;7.65;2.53;;;20.30;97.20;;;;;;5062411;28;20466;-65
2022/08/29 07:44:55;;;;;;;9.23;2.72;;;20.20;97.20;;;;;;5075760;28;20119;-65
2022/08/29 07:47:21;;;;;;;6.93;2.50;;;20.30;97.00;;;;;;5076146;28;20063;-65
2022/08/29 07:49:46;;;;;;;11.07;3.00;;;20.50;96.90;;;;;;5078923;28;20036;-65
2022/08/29 07:52:12;;;;;;;5.30;2.47;;;20.60;96.70;;;;;;5090821;28;20039;-65
2022/08/29 07:54:37;;;;;;;9.10;2.72;;;20.60;96.50;;;;;;5082362;28;20131;-64
2022/08/29 07:57:03;;;;;;;8.52;2.90;;;20.70;96.40;;;;;;5074242;28;20054;-65
2022/08/29 07:59:30;;;;;;;10.13;2.70;;;20.70;96.30;;;;;;5086533;28;20135;-65
2022/08/29 08:01:55;;;;;;;8.10;2.42;;;20.60;96.20;;;;;;5095216;28;20056;-65
2022/08/29 08:04:21;;;;;;;8.60;2.75;;;20.60;96.20;;;;;;5093623;28;20641;-65
2022/08/29 08:06:46;;;;;;;7.97;2.25;;;20.50;96.20;;;;;;5081638;28;20048;-64
2022/08/29 08:09:15;;;;;;;8.85;3.22;;;20.50;96.20;;;;;;5082773;28;20484;-65
2022/08/29 08:11:41;;;;;;;9.43;2.85;;;20.70;96.10;;;;;;5088221;28;20078;-65
2022/08/29 08:14:07;;;;;;;7.13;2.30;;;20.70;96.00;;;;;;5090673;28;20032;-66
2022/08/29 08:16:33;;;;;;;7.18;2.67;;;20.90;95.90;;;;;;5092888;28;20043;-66
2022/08/29 08:18:59;;;;;;;8.80;2.75;;;21.10;95.60;;;;;;5075325;28;20131;-65
2022/08/29 08:21:25;;;;;;;10.02;2.75;;;21.20;95.20;;;;;;5073302;28;20136;-65
2022/08/29 08:23:52;;;;;;;9.98;2.80;;;21.20;95.10;;;;;;5090279;28;20036;-66
2022/08/29 08:26:18;;;;;;;7.22;2.90;;;21.30;94.90;;;;;;5092154;28;20127;-65
2022/08/29 08:28:45;;;;;;;8.35;3.15;;;21.30;94.70;;;;;;5083237;28;20055;-66
2022/08/29 08:31:12;;;;;;;8.02;2.50;;;21.40;94.60;;;;;;5086857;28;20453;-66
2022/08/29 08:33:38;;;;;;;10.50;2.70;;;21.40;94.50;;;;;;5086672;28;20122;-65
2022/08/29 08:36:11;;;;;;;9.00;2.70;;;21.70;94.10;;;;;;5076987;28;20040;-65
2022/08/29 08:38:37;;;;;;;6.53;2.60;;;21.90;93.90;;;;;;5087306;28;20032;-65
2022/08/29 08:41:26;;;;;;;9.23;2.85;;;22.10;93.60;;;;;;5093902;28;20062;-66
2022/08/29 08:43:55;;;;;;;11.57;2.72;;;22.80;92.80;;;;;;5079758;28;20123;-65
2022/08/29 08:46:29;;;;;;;6.90;2.47;;;23.20;92.10;;;;;;5086676;28;20052;-66
2022/08/29 08:48:59;;;;;;;9.52;2.83;;;24.10;91.00;;;;;;5068955;28;20794;-66
2022/08/29 08:51:29;;;;;;;8.40;2.58;;;24.60;90.00;;;;;;5077469;28;20082;-66
2022/08/29 08:53:58;;;;;;;8.15;2.58;;;24.60;88.80;;;;;;5093469;28;20032;-66
2022/08/29 08:56:50;;;;;;;10.70;2.55;;;24.70;87.50;;;;;;5054922;28;20056;-65
2022/08/29 08:59:28;;;;;;;5.43;2.97;;;24.80;84.00;;;;;;5063229;28;20051;-65
2022/08/29 09:02:10;;;;;;;10.40;3.00;;;24.50;84.40;;;;;;5082840;28;20028;-65
2022/08/29 09:05:02;;;;;;;9.65;3.30;;;24.30;84.00;;;;;;5076834;28;20040;-65
2022/08/29 09:07:46;;;;;;;6.90;2.83;;;23.90;84.60;;;;;;5068081;28;20032;-64
2022/08/29 09:10:47;;;;;;;7.85;2.65;;;23.70;84.50;;;;;;5075247;28;20479;-65
2022/08/29 09:13:40;;;;;;;12.38;2.83;;;23.40;85.40;;;;;;5084107;28;20057;-65
2022/08/29 09:16:21;;;;;;;8.35;2.90;;;23.30;85.90;;;;;;5073445;28;20124;-65
2022/08/29 09:18:47;;;;;;;12.95;3.40;;;23.20;86.40;;;;;;5075841;28;20036;-65
2022/08/29 09:21:19;;;;;;;7.22;3.22;;;23.40;86.60;;;;;;5085245;28;20042;-65
2022/08/29 09:23:46;;;;;;;9.98;2.97;;;23.60;85.80;;;;;;5057951;28;20111;-65
2022/08/29 09:26:16;;;;;;;6.93;3.00;;;23.60;85.40;;;;;;5074069;28;20132;-65
2022/08/29 09:28:42;;;;;;;8.25;3.65;;;23.70;84.60;;;;;;5084905;28;20123;-64
2022/08/29 09:31:31;;;;;;;7.07;3.08;;;23.80;84.20;;;;;;5057432;28;20122;-65
2022/08/29 09:34:02;;;;;;;7.68;3.03;;;23.80;83.20;;;;;;5073768;28;20046;-64
2022/08/29 09:36:49;;;;;;;9.10;3.13;;;23.80;83.70;;;;;;5088583;28;20051;-65
2022/08/29 09:39:30;;;;;;;10.95;3.13;;;23.90;83.40;;;;;;5071625;28;20036;-65
2022/08/29 09:41:58;;;;;;;9.82;3.67;;;23.80;83.10;;;;;;5072227;28;20033;-65
2022/08/29 09:44:30;;;;;;;9.30;4.00;;;23.70;83.20;;;;;;5074244;28;20039;-65
2022/08/29 09:47:18;;;;;;;10.63;3.40;;;23.60;83.10;;;;;;5059228;28;20068;-65
2022/08/29 09:49:59;;;;;;;11.18;3.40;;;23.40;83.00;;;;;;5064532;28;20119;-64
2022/08/29 09:52:26;;;;;;;7.47;3.47;;;23.30;83.30;;;;;;5051959;28;20042;-65
2022/08/29 09:54:52;;;;;;;7.38;2.85;;;23.20;83.80;;;;;;5055146;28;20499;-65
2022/08/29 09:57:17;;;;;;;9.75;3.88;;;23.00;84.30;;;;;;5034085;28;20037;-64
2022/08/29 09:59:45;;;;;;;11.68;3.42;;;22.90;84.70;;;;;;5023541;28;20037;-65
2022/08/29 10:02:20;;;;;;;9.00;3.47;;;22.80;85.20;;;;;;5050852;28;20552;-64
2022/08/29 10:04:53;;;;;;;9.60;3.50;;;22.70;85.60;;;;;;5050638;28;20124;-64
2022/08/29 10:07:29;;;;;;;9.95;3.25;;;22.60;85.70;;;;;;5065666;28;20055;-64
2022/08/29 10:10:02;;;;;;;12.70;3.65;;;22.50;85.70;;;;;;5051306;28;20373;-64
2022/08/29 10:12:48;;;;;;;10.82;4.00;;;22.40;86.00;;;;;;5054933;28;20062;-64
2022/08/29 10:15:25;;;;;;;7.30;3.20;;;22.30;86.60;;;;;;5061018;28;20044;-64
2022/08/29 10:18:23;;;;;;;8.98;3.00;;;22.20;86.60;;;;;;5059273;28;20037;-64
2022/08/29 10:21:17;;;;;;;8.10;3.22;;;22.30;86.40;;;;;;5059316;28;20040;-64
2022/08/29 10:24:02;;;;;;;9.35;3.40;;;22.30;86.80;;;;;;5060547;28;20124;-64
2022/08/29 10:26:37;;;;;;;10.80;3.55;;;22.30;86.90;;;;;;5061398;28;20043;-65
2022/08/29 10:29:15;;;;;;;9.90;3.58;;;22.30;88.40;;;;;;5062029;28;20357;-64
2022/08/29 10:32:01;;;;;;;10.82;3.53;;;21.90;90.40;;;;;;5067721;28;20029;-65
2022/08/29 10:34:51;;;;;;;11.38;3.50;;;21.20;92.70;;;;;;5069162;28;20036;-65
2022/08/29 10:37:45;;;;;;;10.77;3.50;;;21.00;94.30;;;;;;5066053;28;20124;-64
2022/08/29 10:40:35;;;;;;;8.65;3.05;;;20.80;95.00;;;;;;5062544;28;20048;-64
2022/08/29 10:43:15;;;;;;;10.47;3.47;;;20.70;95.50;;;;;;5065889;28;20036;-64
2022/08/29 10:45:52;;;;;;;8.27;3.55;;;20.80;95.70;;;;;;5070546;28;20659;-65
2022/08/29 10:48:29;;;;;;;9.57;2.80;;;20.80;95.90;;;;;;5053924;28;20072;-64
2022/08/29 10:51:15;;;;;;;9.35;3.67;;;20.90;96.10;;;;;;5067612;28;20047;-64
2022/08/29 10:53:45;;;;;;;7.82;3.10;;;21.00;96.00;;;;;;5059304;28;20488;-64
2022/08/29 10:56:29;;;;;;;9.15;3.80;;;21.00;95.90;;;;;;5063858;28;20040;-64
2022/08/29 10:59:19;;;;;;;6.47;3.42;;;21.10;95.90;;;;;;5069126;28;20891;-64
2022/08/29 11:01:52;;;;;;;8.50;3.13;;;21.10;95.70;;;;;;5068756;28;20074;-64
2022/08/29 11:04:39;;;;;;;6.60;3.00;;;21.20;95.50;;;;;;5067717;28;20047;-64
2022/08/29 11:07:35;;;;;;;7.20;2.85;;;21.30;95.30;;;;;;5066600;28;20033;-64
2022/08/29 11:10:16;;;;;;;9.48;3.10;;;21.40;95.10;;;;;;5064518;28;20071;-64
2022/08/29 11:12:52;;;;;;;10.13;3.00;;;21.50;94.90;;;;;;5068420;28;20086;-64
2022/08/29 11:15:41;;;;;;;4.63;2.80;;;21.50;94.80;;;;;;5065033;28;20615;-64
2022/08/29 11:18:30;;;;;;;5.93;2.83;;;21.60;94.50;;;;;;5065996;28;20028;-64
2022/08/29 11:21:02;;;;;;;9.73;3.53;;;21.70;94.20;;;;;;5067756;28;20412;-64
2022/08/29 11:23:41;;;;;;;9.13;3.47;;;21.80;94.00;;;;;;5054717;28;20072;-65
2022/08/29 11:26:38;;;;;;;9.70;3.57;;;21.90;93.70;;;;;;5051931;28;20056;-64
2022/08/29 11:29:19;;;;;;;9.80;3.03;;;22.10;93.60;;;;;;5051836;28;20047;-64
2022/08/29 11:32:02;;;;;;;8.15;2.97;;;22.20;93.10;;;;;;5052828;28;20037;-65
2022/08/29 11:34:37;;;;;;;9.40;3.05;;;22.20;92.60;;;;;;5066448;28;20426;-64
2022/08/29 11:37:22;;;;;;;5.72;2.97;;;22.20;92.30;;;;;;5056665;28;20037;-64
2022/08/29 11:40:14;;;;;;;8.70;3.20;;;22.30;92.20;;;;;;5004723;28;20128;-65
2022/08/29 11:42:43;;;;;;;8.65;3.38;;;22.40;91.90;;;;;;5043019;28;20132;-64
2022/08/29 11:45:13;;;;;;;9.97;3.40;;;22.40;91.50;;;;;;5071076;28;20101;-65
2022/08/29 11:47:56;;;;;;;11.25;3.30;;;22.50;91.30;;;;;;5052307;28;21466;-65
2022/08/29 11:50:33;;;;;;;9.30;2.85;;;22.50;91.10;;;;;;5069872;28;20439;-65
2022/08/29 11:53:21;;;;;;;10.13;3.33;;;22.70;90.50;;;;;;5070891;28;20040;-65
2022/08/29 11:56:11;;;;;;;7.18;2.97;;;22.80;90.30;;;;;;5071020;28;20052;-64
2022/08/29 11:58:39;;;;;;;7.43;2.83;;;22.90;90.00;;;;;;5071444;28;20036;-65
2022/08/29 12:01:09;;;;;;;9.48;3.25;;;23.00;89.90;;;;;;5070891;28;20566;-64
2022/08/29 12:03:35;;;;;;;;;;;23.00;89.10;;;;;;5068858;28;20036;-64
2022/08/29 12:06:24;;;;;;;5.35;3.10;;;23.10;88.10;;;;;;5067754;28;19921;-64
2022/08/29 12:09:00;;;;;;;10.52;2.92;;;23.30;88.20;;;;;;5070456;28;20047;-65
2022/08/29 12:12:02;;;;;;;6.97;2.95;;;23.40;87.20;;;;;;5070883;28;20421;-65
2022/08/29 12:14:35;;;;;;;8.80;2.97;;;23.50;86.60;;;;;;5070399;28;20067;-65
2022/08/29 12:17:03;;;;;;;8.73;2.90;;;23.70;86.00;;;;;;5070943;28;20045;-65
2022/08/29 12:19:48;;;;;;;7.75;3.10;;;23.70;85.60;;;;;;5068181;28;20032;-65
2022/08/29 12:22:46;;;;;;;9.65;2.85;;;23.80;84.90;;;;;;5049800;28;20048;-65
2022/08/29 12:25:27;;;;;;;6.45;2.78;;;23.70;85.10;;;;;;5070051;28;20115;-65
2022/08/29 12:28:19;;;;;;;5.80;2.70;;;23.30;86.80;;;;;;5071662;28;20550;-65
2022/08/29 12:31:02;;;;;;;7.22;2.80;;;23.20;87.50;;;;;;5047182;28;20682;-65
2022/08/29 12:33:47;;;;;;;7.80;3.10;;;23.30;86.20;;;;;;5073143;28;20047;-64
2022/08/29 12:36:23;;;;;;;5.43;2.53;;;23.30;86.40;;;;;;5053232;28;20052;-65
2022/08/29 12:39:00;;;;;;;5.60;2.40;;;23.50;85.80;;;;;;5066991;28;20047;-65
2022/08/29 12:41:45;;;;;;;6.80;2.53;;;23.50;84.70;;;;;;5074484;28;20036;-65
2022/08/29 12:44:15;;;;;;;8.18;2.88;;;23.50;84.10;;;;;;5074414;28;20041;-64
2022/08/29 12:46:44;;;;;;;3.78;2.60;;;23.50;84.10;;;;;;5075018;28;20045;-65
2022/08/29 12:49:24;;;;;;;7.20;2.80;;;23.60;83.40;;;;;;5071766;28;20094;-65
2022/08/29 12:52:03;;;;;;;8.25;2.65;;;23.50;82.20;;;;;;5073959;28;20472;-65
2022/08/29 12:54:32;;;;;;;5.00;2.47;;;23.40;81.50;;;;;;5074206;28;20670;-64
2022/08/29 12:56:58;;;;;;;8.85;2.63;;;23.40;82.00;;;;;;5074280;28;20036;-65
2022/08/29 12:59:25;;;;;;;4.63;2.55;;;23.50;81.60;;;;;;5074017;28;20037;-65
2022/08/29 13:01:53;;;;;;;6.22;2.78;;;23.60;81.20;;;;;;5074173;28;20435;-65
2022/08/29 13:04:22;;;;;;;4.97;2.40;;;23.80;80.40;;;;;;5068527;28;20419;-65
2022/08/29 13:06:55;;;;;;;6.75;3.00;;;23.80;79.90;;;;;;5073668;28;20078;-64
2022/08/29 13:09:32;;;;;;;6.60;2.75;;;23.90;78.20;;;;;;5056072;28;20059;-65